createdAt,value
2018-02-20T00:01:58.148Z,-0.10
2018-02-20T00:04:00.774Z,0.00
2018-02-20T00:06:03.371Z,0.10
2018-02-20T00:08:05.966Z,-0.10
2018-02-20T00:10:08.567Z,0.00
2018-02-20T00:12:11.932Z,0.00
2018-02-20T00:14:14.563Z,0.00
2018-02-20T00:16:17.921Z,0.10
2018-02-20T00:18:21.285Z,0.20
2018-02-20T00:20:23.957Z,0.20
2018-02-20T00:22:28.743Z,0.10
2018-02-20T00:24:32.766Z,0.20
2018-02-20T00:26:35.370Z,0.10
2018-02-20T00:28:40.882Z,0.20
2018-02-20T00:30:43.516Z,0.10
2018-02-20T00:32:46.897Z,0.10
2018-02-20T00:34:49.506Z,0.10
2018-02-20T00:36:52.266Z,0.10
2018-02-20T00:38:55.638Z,0.10
2018-02-20T00:40:58.244Z,0.10
2018-02-20T00:43:00.886Z,0.20
2018-02-20T00:45:03.507Z,0.10
2018-02-20T00:47:06.132Z,0.10
2018-02-20T00:49:08.750Z,0.10
2018-02-20T00:51:11.377Z,0.10
2018-02-20T00:53:14.001Z,0.20
2018-02-20T00:55:16.607Z,0.10
2018-02-20T00:57:19.229Z,0.20
2018-02-20T00:59:22.594Z,0.20
2018-02-20T01:01:25.197Z,0.20
2018-02-20T01:03:28.587Z,0.10
2018-02-20T01:05:32.706Z,0.10
2018-02-20T01:07:35.349Z,0.10
2018-02-20T01:09:37.948Z,0.10
2018-02-20T01:11:41.458Z,0.10
2018-02-20T01:13:44.090Z,0.00
2018-02-20T01:15:46.684Z,-0.20
2018-02-20T01:17:50.118Z,-0.50
2018-02-20T01:19:52.814Z,-0.50
2018-02-20T01:21:55.414Z,-0.40
2018-02-20T01:23:58.035Z,-0.40
2018-02-20T01:26:00.644Z,-0.30
2018-02-20T01:28:03.292Z,-0.20
2018-02-20T01:30:05.913Z,-0.30
2018-02-20T01:32:08.506Z,-0.40
2018-02-20T01:34:11.890Z,-0.50
2018-02-20T01:36:14.516Z,-0.50
2018-02-20T01:38:17.188Z,-0.50
2018-02-20T01:40:19.830Z,-0.30
2018-02-20T01:42:22.438Z,-0.40
2018-02-20T01:44:25.058Z,-0.30
2018-02-20T01:46:27.648Z,-0.20
2018-02-20T01:48:31.057Z,-0.10
2018-02-20T01:50:33.753Z,-0.20
2018-02-20T01:52:36.356Z,-0.10
2018-02-20T01:54:38.958Z,-0.10
2018-02-20T01:56:42.342Z,-0.10
2018-02-20T01:58:45.317Z,-0.10
2018-02-20T02:00:48.018Z,-0.20
2018-02-20T02:02:51.390Z,-0.10
2018-02-20T02:04:54.422Z,-0.10
2018-02-20T02:06:57.040Z,-0.10
2018-02-20T02:08:59.625Z,-0.10
2018-02-20T02:11:02.248Z,-0.10
2018-02-20T02:13:04.914Z,0.00
2018-02-20T02:15:07.525Z,-0.10
2018-02-20T02:17:10.137Z,-0.10
2018-02-20T02:19:13.608Z,-0.10
2018-02-20T02:21:16.211Z,-0.20
2018-02-20T02:23:19.590Z,-0.30
2018-02-20T02:25:22.961Z,-0.30
2018-02-20T02:27:25.568Z,-0.30
2018-02-20T02:29:28.942Z,-0.20
2018-02-20T02:31:31.535Z,-0.20
2018-02-20T02:33:34.916Z,-0.10
2018-02-20T02:35:37.522Z,-0.10
2018-02-20T02:37:40.136Z,0.00
2018-02-20T02:39:42.738Z,0.00
2018-02-20T02:41:45.407Z,0.00
2018-02-20T02:43:48.198Z,-0.10
2018-02-20T02:45:51.568Z,-0.40
2018-02-20T02:47:54.237Z,-0.40
2018-02-20T02:49:56.829Z,-0.60
2018-02-20T02:51:59.432Z,-0.40
2018-02-20T02:54:02.064Z,-0.40
2018-02-20T02:56:04.685Z,-0.40
2018-02-20T02:58:07.292Z,-0.30
2018-02-20T03:00:09.910Z,-0.20
2018-02-20T03:02:12.517Z,-0.20
2018-02-20T03:04:15.696Z,-0.20
2018-02-20T03:06:18.330Z,-0.10
2018-02-20T03:08:20.952Z,0.00
2018-02-20T03:10:23.553Z,0.00
2018-02-20T03:12:26.135Z,0.00
2018-02-20T03:14:28.773Z,-0.10
2018-02-20T03:16:31.972Z,0.00
2018-02-20T03:18:34.664Z,0.00
2018-02-20T03:20:37.300Z,0.00
2018-02-20T03:22:40.726Z,-0.10
2018-02-20T03:24:43.327Z,-0.10
2018-02-20T03:26:45.952Z,0.00
2018-02-20T03:28:48.538Z,0.00
2018-02-20T03:30:51.158Z,0.00
2018-02-20T03:32:53.810Z,-0.10
2018-02-20T03:34:56.764Z,-0.10
2018-02-20T03:36:59.350Z,0.00
2018-02-20T03:39:01.974Z,-0.10
2018-02-20T03:41:04.569Z,-0.20
2018-02-20T03:43:07.972Z,-0.30
2018-02-20T03:45:10.595Z,-0.40
2018-02-20T03:47:13.187Z,-0.40
2018-02-20T03:49:15.808Z,-0.40
2018-02-20T03:51:18.432Z,-0.30
2018-02-20T03:53:21.026Z,-0.30
2018-02-20T03:55:24.409Z,-0.20
2018-02-20T03:57:26.996Z,-0.20
2018-02-20T03:59:30.370Z,-0.20
2018-02-20T04:01:33.048Z,-0.20
2018-02-20T04:03:35.663Z,-0.20
2018-02-20T04:05:38.249Z,-0.30
2018-02-20T04:07:40.863Z,-0.30
2018-02-20T04:09:43.468Z,-0.30
2018-02-20T04:11:46.850Z,-0.30
2018-02-20T04:13:50.258Z,-0.30
2018-02-20T04:15:53.675Z,-0.30
2018-02-20T04:17:56.336Z,-0.30
2018-02-20T04:19:58.925Z,-0.20
2018-02-20T04:22:01.539Z,-0.30
2018-02-20T04:24:04.133Z,-0.30
2018-02-20T04:26:07.503Z,-0.20
2018-02-20T04:28:10.105Z,-0.30
2018-02-20T04:30:13.490Z,-0.40
2018-02-20T04:32:16.454Z,-0.40
2018-02-20T04:34:19.069Z,-0.40
2018-02-20T04:36:21.657Z,-0.30
2018-02-20T04:38:24.374Z,-0.30
2018-02-20T04:40:26.969Z,-0.30
2018-02-20T04:42:29.557Z,-0.30
2018-02-20T04:44:32.938Z,-0.30
2018-02-20T04:46:35.565Z,-0.30
2018-02-20T04:48:38.155Z,-0.30
2018-02-20T04:50:40.765Z,-0.30
2018-02-20T04:52:44.121Z,-0.20
2018-02-20T04:54:46.977Z,-0.20
2018-02-20T04:56:49.577Z,-0.20
2018-02-20T04:58:52.264Z,-0.20
2018-02-20T05:00:54.878Z,-0.20
2018-02-20T05:02:58.230Z,-0.20
2018-02-20T05:05:00.846Z,-0.20
2018-02-20T05:07:04.194Z,-0.20
2018-02-20T05:09:07.565Z,-0.20
2018-02-20T05:11:10.169Z,-0.20
2018-02-20T05:13:12.765Z,-0.30
2018-02-20T05:15:16.131Z,-0.20
2018-02-20T05:17:18.759Z,-0.20
2018-02-20T05:19:21.342Z,-0.30
2018-02-20T05:21:24.056Z,-0.30
2018-02-20T05:23:26.650Z,-0.30
2018-02-20T05:25:30.086Z,-0.30
2018-02-20T05:27:32.701Z,-0.30
2018-02-20T05:29:35.349Z,-0.30
2018-02-20T05:31:37.978Z,-0.20
2018-02-20T05:33:41.369Z,-0.20
2018-02-20T05:35:44.750Z,-0.30
2018-02-20T05:37:47.377Z,-0.30
2018-02-20T05:39:50.006Z,-0.30
2018-02-20T05:41:53.374Z,-0.30
2018-02-20T05:43:55.996Z,-0.30
2018-02-20T05:45:58.592Z,-0.30
2018-02-20T05:48:01.236Z,-0.20
2018-02-20T05:50:03.874Z,-0.20
2018-02-20T05:52:06.541Z,-0.20
2018-02-20T05:54:09.288Z,-0.30
2018-02-20T05:56:11.912Z,-0.20
2018-02-20T05:58:14.526Z,-0.20
2018-02-20T06:00:17.130Z,-0.20
2018-02-20T06:02:19.834Z,-0.10
2018-02-20T06:04:22.444Z,-0.20
2018-02-20T06:06:25.048Z,-0.30
2018-02-20T06:08:27.674Z,-0.30
2018-02-20T06:10:31.040Z,-0.30
2018-02-20T06:12:34.411Z,-0.30
2018-02-20T06:14:37.041Z,-0.30
2018-02-20T06:16:40.637Z,-0.30
2018-02-20T06:18:44.066Z,-0.40
2018-02-20T06:20:46.695Z,-0.40
2018-02-20T06:22:49.310Z,-0.40
2018-02-20T06:24:52.012Z,-0.30
2018-02-20T06:26:54.660Z,-0.30
2018-02-20T06:28:57.347Z,-0.30
2018-02-20T06:30:59.961Z,-0.30
2018-02-20T06:33:02.580Z,-0.30
2018-02-20T06:35:05.515Z,-0.30
2018-02-20T06:37:08.117Z,-0.30
2018-02-20T06:39:11.532Z,-0.20
2018-02-20T06:41:14.158Z,-0.20
2018-02-20T06:43:16.745Z,-0.20
2018-02-20T06:45:20.141Z,-0.20
2018-02-20T06:47:23.516Z,-0.10
2018-02-20T06:49:26.114Z,-0.10
2018-02-20T06:51:29.495Z,-0.10
2018-02-20T06:53:32.088Z,-0.10
2018-02-20T06:55:35.548Z,0.00
2018-02-20T06:57:38.148Z,0.00
2018-02-20T06:59:41.579Z,0.10
2018-02-20T07:01:44.199Z,0.10
2018-02-20T07:03:46.802Z,0.00
2018-02-20T07:05:50.188Z,0.00
2018-02-20T07:07:53.555Z,0.00
2018-02-20T07:09:56.170Z,0.00
2018-02-20T07:11:58.778Z,0.10
2018-02-20T07:14:01.357Z,0.10
2018-02-20T07:16:04.734Z,0.20
2018-02-20T07:18:07.325Z,0.10
2018-02-20T07:20:09.923Z,0.10
2018-02-20T07:22:12.632Z,0.10
2018-02-20T07:24:15.254Z,0.10
2018-02-20T07:26:17.879Z,0.00
2018-02-20T07:28:20.501Z,0.10
2018-02-20T07:30:23.166Z,0.10
2018-02-20T07:32:25.775Z,0.10
2018-02-20T07:34:28.361Z,0.30
2018-02-20T07:36:31.739Z,0.30
2018-02-20T07:38:34.397Z,0.30
2018-02-20T07:40:36.995Z,0.30
2018-02-20T07:42:39.596Z,0.30
2018-02-20T07:44:42.174Z,0.20
2018-02-20T07:46:44.764Z,0.20
2018-02-20T07:48:47.369Z,0.30
2018-02-20T07:50:49.956Z,0.40
2018-02-20T07:52:52.566Z,0.40
2018-02-20T07:54:55.158Z,0.40
2018-02-20T07:56:57.754Z,0.50
2018-02-20T07:59:00.357Z,0.50
2018-02-20T08:01:02.974Z,0.40
2018-02-20T08:03:05.591Z,0.40
2018-02-20T08:05:08.195Z,0.40
2018-02-20T08:07:11.580Z,0.50
2018-02-20T08:09:14.166Z,0.50
2018-02-20T08:11:17.825Z,0.60
2018-02-20T08:13:20.409Z,0.60
2018-02-20T08:15:23.025Z,0.60
2018-02-20T08:17:25.634Z,0.70
2018-02-20T08:19:29.035Z,0.70
2018-02-20T08:21:31.643Z,0.70
2018-02-20T08:23:34.278Z,0.70
2018-02-20T08:25:36.890Z,0.70
2018-02-20T08:27:39.480Z,0.70
2018-02-20T08:29:42.924Z,0.60
2018-02-20T08:31:46.249Z,0.60
2018-02-20T08:33:48.834Z,0.60
2018-02-20T08:35:52.217Z,0.60
2018-02-20T08:37:54.793Z,0.50
2018-02-20T08:39:58.153Z,0.60
2018-02-20T08:42:00.752Z,0.50
2018-02-20T08:44:03.335Z,0.60
2018-02-20T08:46:06.712Z,0.60
2018-02-20T08:48:09.329Z,0.60
2018-02-20T08:50:11.922Z,0.60
2018-02-20T08:52:14.603Z,0.60
2018-02-20T08:54:17.186Z,0.70
2018-02-20T08:56:19.774Z,0.80
2018-02-20T08:58:22.397Z,0.90
2018-02-20T09:00:24.989Z,0.90
2018-02-20T09:02:27.623Z,0.80
2018-02-20T09:04:31.015Z,0.70
2018-02-20T09:06:34.376Z,0.70
2018-02-20T09:08:36.996Z,0.70
2018-02-20T09:10:40.350Z,0.90
2018-02-20T09:12:42.961Z,0.90
2018-02-20T09:14:46.408Z,1.20
2018-02-20T09:16:48.985Z,1.20
2018-02-20T09:18:51.610Z,1.20
2018-02-20T09:20:54.221Z,1.20
2018-02-20T09:22:56.827Z,1.10
2018-02-20T09:24:59.441Z,1.00
2018-02-20T09:27:02.027Z,1.10
2018-02-20T09:29:04.701Z,1.20
2018-02-20T09:31:07.308Z,1.20
2018-02-20T09:33:09.916Z,1.10
2018-02-20T09:35:13.584Z,1.00
2018-02-20T09:37:16.177Z,1.00
2018-02-20T09:39:18.785Z,1.10
2018-02-20T09:41:21.373Z,1.10
2018-02-20T09:43:23.981Z,1.20
2018-02-20T09:45:26.586Z,1.30
2018-02-20T09:47:29.952Z,1.50
2018-02-20T09:49:32.582Z,1.50
2018-02-20T09:51:35.156Z,1.60
2018-02-20T09:53:37.746Z,1.50
2018-02-20T09:55:40.353Z,1.60
2018-02-20T09:57:42.922Z,1.50
2018-02-20T09:59:45.542Z,1.50
2018-02-20T10:01:48.121Z,1.60
2018-02-20T10:03:50.714Z,1.60
2018-02-20T10:05:53.318Z,1.60
2018-02-20T10:07:55.954Z,1.50
2018-02-20T10:09:59.274Z,1.40
2018-02-20T10:12:01.891Z,1.40
2018-02-20T10:14:05.309Z,1.40
2018-02-20T10:16:07.929Z,1.40
2018-02-20T10:18:10.528Z,1.60
2018-02-20T10:20:13.909Z,1.70
2018-02-20T10:22:16.525Z,1.70
2018-02-20T10:24:19.113Z,1.50
2018-02-20T10:26:21.706Z,1.60
2018-02-20T10:28:24.341Z,1.70
2018-02-20T10:30:26.942Z,1.70
2018-02-20T10:32:29.563Z,1.50
2018-02-20T10:34:32.934Z,1.40
2018-02-20T10:36:37.181Z,1.30
2018-02-20T10:38:40.790Z,1.30
2018-02-20T10:40:43.402Z,1.30
2018-02-20T10:42:46.009Z,1.40
2018-02-20T10:44:48.628Z,1.50
2018-02-20T10:46:51.248Z,1.60
2018-02-20T10:48:53.910Z,1.40
2018-02-20T10:50:56.494Z,1.40
2018-02-20T10:52:59.101Z,1.30
2018-02-20T10:55:02.487Z,1.20
2018-02-20T10:57:05.106Z,1.20
2018-02-20T10:59:07.757Z,1.10
2018-02-20T11:01:10.362Z,1.10
2018-02-20T11:03:12.973Z,1.20
2018-02-20T11:05:15.637Z,1.20
2018-02-20T11:07:18.265Z,1.20
2018-02-20T11:09:20.878Z,1.20
2018-02-20T11:11:24.247Z,1.30
2018-02-20T11:13:26.826Z,1.20
2018-02-20T11:15:29.406Z,1.30
2018-02-20T11:17:32.020Z,1.40
2018-02-20T11:19:35.378Z,1.30
2018-02-20T11:21:37.984Z,1.30
2018-02-20T11:23:41.345Z,1.40
2018-02-20T11:25:43.933Z,1.40
2018-02-20T11:27:46.525Z,1.50
2018-02-20T11:29:49.885Z,1.40
2018-02-20T11:31:52.517Z,1.40
2018-02-20T11:33:55.104Z,1.50
2018-02-20T11:35:57.737Z,1.50
2018-02-20T11:38:00.381Z,1.60
2018-02-20T11:40:02.998Z,1.70
2018-02-20T11:42:06.358Z,1.70
2018-02-20T11:44:08.973Z,1.70
2018-02-20T11:46:12.353Z,1.60
2018-02-20T11:48:15.726Z,1.70
2018-02-20T11:50:18.333Z,1.60
2018-02-20T11:52:21.712Z,1.80
2018-02-20T11:54:25.082Z,1.80
2018-02-20T11:56:27.698Z,1.80
2018-02-20T11:58:30.317Z,1.70
2018-02-20T12:00:32.919Z,1.70
2018-02-20T12:02:36.349Z,1.70
2018-02-20T12:04:38.954Z,1.70
2018-02-20T12:06:41.558Z,1.60
2018-02-20T12:08:44.167Z,1.50
2018-02-20T12:10:46.781Z,1.50
2018-02-20T12:12:49.370Z,1.40
2018-02-20T12:14:52.022Z,1.50
2018-02-20T12:16:54.650Z,1.50
2018-02-20T12:18:58.021Z,1.60
2018-02-20T12:21:00.626Z,1.60
2018-02-20T12:23:03.213Z,1.70
2018-02-20T12:25:05.813Z,1.80
2018-02-20T12:27:08.402Z,1.70
2018-02-20T12:29:11.085Z,1.70
2018-02-20T12:31:13.727Z,1.80
2018-02-20T12:33:16.316Z,1.70
2018-02-20T12:35:19.707Z,1.80
2018-02-20T12:37:22.326Z,1.80
2018-02-20T12:39:25.705Z,1.90
2018-02-20T12:41:28.297Z,1.90
2018-02-20T12:43:31.657Z,1.70
2018-02-20T12:45:34.274Z,1.70
2018-02-20T12:47:36.873Z,1.80
2018-02-20T12:49:39.486Z,1.70
2018-02-20T12:51:42.178Z,1.80
2018-02-20T12:53:45.554Z,1.80
2018-02-20T12:55:48.146Z,1.80
2018-02-20T12:57:51.510Z,1.70
2018-02-20T12:59:54.118Z,1.70
2018-02-20T13:01:57.486Z,1.80
2018-02-20T13:04:00.077Z,1.80
2018-02-20T13:06:03.457Z,1.80
2018-02-20T13:08:06.058Z,1.80
2018-02-20T13:10:09.454Z,1.60
2018-02-20T13:12:12.053Z,1.60
2018-02-20T13:14:14.654Z,1.50
2018-02-20T13:16:17.260Z,1.40
2018-02-20T13:18:20.637Z,1.40
2018-02-20T13:20:23.265Z,1.40
2018-02-20T13:22:25.906Z,1.40
2018-02-20T13:24:29.278Z,1.40
2018-02-20T13:26:31.975Z,1.40
2018-02-20T13:28:35.329Z,1.40
2018-02-20T13:30:37.979Z,1.40
2018-02-20T13:32:40.587Z,1.40
2018-02-20T13:34:43.388Z,1.40
2018-02-20T13:36:45.998Z,1.30
2018-02-20T13:38:48.592Z,1.30
2018-02-20T13:40:51.198Z,1.30
2018-02-20T13:42:53.793Z,1.30
2018-02-20T13:44:56.408Z,1.30
2018-02-20T13:46:59.267Z,1.30
2018-02-20T13:49:01.870Z,1.40
2018-02-20T13:51:04.594Z,1.30
2018-02-20T13:53:08.320Z,1.30
2018-02-20T13:55:10.919Z,1.30
2018-02-20T13:57:13.581Z,1.30
2018-02-20T13:59:16.936Z,1.20
2018-02-20T14:01:20.331Z,1.10
2018-02-20T14:03:23.723Z,1.10
2018-02-20T14:05:27.086Z,1.10
2018-02-20T14:07:29.709Z,1.10
2018-02-20T14:09:32.303Z,1.00
2018-02-20T14:11:34.885Z,0.80
2018-02-20T14:13:37.502Z,0.80
2018-02-20T14:15:40.103Z,0.90
2018-02-20T14:17:46.447Z,1.00
2018-02-20T14:19:49.909Z,1.10
2018-02-20T14:21:52.509Z,1.00
2018-02-20T14:23:55.118Z,1.10
2018-02-20T14:25:57.729Z,1.10
2018-02-20T14:28:00.347Z,1.10
2018-02-20T14:30:03.701Z,1.00
2018-02-20T14:32:06.295Z,1.00
2018-02-20T14:34:09.005Z,0.90
2018-02-20T14:36:11.592Z,1.00
2018-02-20T14:38:14.227Z,1.00
2018-02-20T14:40:16.833Z,1.00
2018-02-20T14:42:19.445Z,1.00
2018-02-20T14:44:22.085Z,1.00
2018-02-20T14:46:24.679Z,0.90
2018-02-20T14:48:27.277Z,0.80
2018-02-20T14:50:29.886Z,0.60
2018-02-20T14:52:33.228Z,0.50
2018-02-20T14:54:35.854Z,0.50
2018-02-20T14:56:39.447Z,0.50
2018-02-20T14:58:42.918Z,0.60
2018-02-20T15:00:45.539Z,0.60
2018-02-20T15:02:48.138Z,0.50
2018-02-20T15:04:51.178Z,0.50
2018-02-20T15:06:54.630Z,0.70
2018-02-20T15:08:57.216Z,0.70
2018-02-20T15:10:59.837Z,0.70
2018-02-20T15:13:02.429Z,0.50
2018-02-20T15:15:05.063Z,0.30
2018-02-20T15:17:08.466Z,0.20
2018-02-20T15:19:11.833Z,0.20
2018-02-20T15:21:14.638Z,0.10
2018-02-20T15:23:17.993Z,0.20
2018-02-20T15:25:20.593Z,0.20
2018-02-20T15:27:23.996Z,0.20
2018-02-20T15:29:27.362Z,0.10
2018-02-20T15:31:30.033Z,0.10
2018-02-20T15:33:32.633Z,0.10
2018-02-20T15:35:35.990Z,0.10
2018-02-20T15:37:38.595Z,0.10
2018-02-20T15:39:41.956Z,0.10
2018-02-20T15:41:44.545Z,0.10
2018-02-20T15:43:47.161Z,0.00
2018-02-20T15:45:49.762Z,-0.20
2018-02-20T15:47:52.394Z,-0.30
2018-02-20T15:49:55.053Z,-0.20
2018-02-20T15:51:57.677Z,-0.10
2018-02-20T15:54:00.317Z,-0.10
2018-02-20T15:56:03.749Z,-0.10
2018-02-20T15:58:06.375Z,-0.10
2018-02-20T16:00:09.744Z,-0.30
2018-02-20T16:02:12.420Z,-0.30
2018-02-20T16:04:15.030Z,-0.30
2018-02-20T16:06:18.398Z,-0.30
2018-02-20T16:08:21.008Z,-0.30
2018-02-20T16:10:23.699Z,-0.20
2018-02-20T16:12:26.321Z,-0.10
2018-02-20T16:14:28.923Z,0.10
2018-02-20T16:16:32.287Z,0.00
2018-02-20T16:18:34.909Z,0.00
2018-02-20T16:20:37.511Z,0.00
2018-02-20T16:22:40.103Z,0.10
2018-02-20T16:24:42.718Z,0.00
2018-02-20T16:26:45.322Z,-0.10
2018-02-20T16:28:48.436Z,-0.20
2018-02-20T16:30:51.038Z,-0.10
2018-02-20T16:32:54.429Z,0.20
2018-02-20T16:34:57.814Z,0.20
2018-02-20T16:37:00.412Z,0.10
2018-02-20T16:39:03.050Z,0.00
2018-02-20T16:41:05.654Z,0.00
2018-02-20T16:43:09.131Z,0.20
2018-02-20T16:45:11.718Z,0.10
2018-02-20T16:47:15.101Z,0.10
2018-02-20T16:49:17.698Z,0.10
2018-02-20T16:51:20.330Z,0.10
2018-02-20T16:53:22.962Z,0.20
2018-02-20T16:55:25.553Z,0.00
2018-02-20T16:57:28.191Z,-0.10
2018-02-20T16:59:30.898Z,-0.10
2018-02-20T17:01:33.519Z,0.00
2018-02-20T17:03:36.159Z,0.10
2018-02-20T17:05:38.810Z,0.10
2018-02-20T17:07:41.434Z,0.20
2018-02-20T17:09:44.034Z,0.30
2018-02-20T17:11:47.439Z,0.00
2018-02-20T17:13:50.050Z,0.00
2018-02-20T17:15:52.667Z,0.10
2018-02-20T17:17:56.042Z,0.10
2018-02-20T17:19:58.654Z,0.10
2018-02-20T17:22:01.276Z,0.00
2018-02-20T17:24:03.881Z,0.10
2018-02-20T17:26:06.517Z,0.00
2018-02-20T17:28:09.108Z,-0.20
2018-02-20T17:30:11.725Z,-0.20
2018-02-20T17:32:14.351Z,-0.10
2018-02-20T17:34:16.971Z,-0.10
2018-02-20T17:36:19.621Z,0.00
2018-02-20T17:38:22.234Z,0.00
2018-02-20T17:40:24.854Z,0.00
2018-02-20T17:42:27.523Z,0.00
2018-02-20T17:44:30.162Z,0.10
2018-02-20T17:46:32.980Z,0.10
2018-02-20T17:48:38.052Z,0.20
2018-02-20T17:50:41.672Z,0.20
2018-02-20T17:52:44.429Z,0.20
2018-02-20T17:54:49.068Z,0.20
2018-02-20T17:56:51.658Z,0.20
2018-02-20T17:58:54.253Z,0.20
2018-02-20T18:00:57.003Z,0.20
2018-02-20T18:03:01.043Z,0.20
2018-02-20T18:05:03.850Z,0.20
2018-02-20T18:07:06.477Z,0.20
2018-02-20T18:09:09.076Z,0.20
2018-02-20T18:11:11.705Z,0.30
2018-02-20T18:13:14.290Z,0.30
2018-02-20T18:15:17.232Z,0.30
2018-02-20T18:17:21.229Z,0.20
2018-02-20T18:19:23.898Z,0.10
2018-02-20T18:21:26.624Z,0.20
2018-02-20T18:23:29.238Z,0.30
2018-02-20T18:25:31.843Z,0.20
2018-02-20T18:27:35.204Z,0.10
2018-02-20T18:29:37.847Z,0.10
2018-02-20T18:31:40.434Z,0.00
2018-02-20T18:33:43.038Z,0.10
2018-02-20T18:35:45.643Z,0.10
2018-02-20T18:37:49.005Z,0.20
2018-02-20T18:39:51.751Z,0.10
2018-02-20T18:41:54.396Z,0.10
2018-02-20T18:43:56.987Z,0.10
2018-02-20T18:45:59.634Z,0.10
2018-02-20T18:48:02.996Z,0.10
2018-02-20T18:50:05.636Z,0.10
2018-02-20T18:52:08.256Z,0.10
2018-02-20T18:54:10.870Z,0.10
2018-02-20T18:56:13.558Z,0.20
2018-02-20T18:58:16.173Z,0.20
2018-02-20T19:00:18.805Z,0.20
2018-02-20T19:02:21.440Z,0.20
2018-02-20T19:04:24.068Z,0.20
2018-02-20T19:06:26.689Z,0.20
2018-02-20T19:08:29.356Z,0.20
2018-02-20T19:10:31.961Z,0.30
2018-02-20T19:12:34.582Z,0.20
2018-02-20T19:14:37.194Z,0.20
2018-02-20T19:16:40.586Z,0.30
2018-02-20T19:18:43.971Z,0.30
2018-02-20T19:20:46.574Z,0.30
2018-02-20T19:22:49.181Z,0.30
2018-02-20T19:24:51.772Z,0.30
2018-02-20T19:26:54.419Z,0.30
2018-02-20T19:28:57.178Z,0.20
2018-02-20T19:30:59.785Z,0.20
2018-02-20T19:33:03.213Z,0.20
2018-02-20T19:35:06.602Z,0.20
2018-02-20T19:37:09.212Z,0.20
2018-02-20T19:39:11.864Z,0.20
2018-02-20T19:41:15.282Z,0.20
2018-02-20T19:43:17.937Z,0.20
2018-02-20T19:45:21.344Z,0.10
2018-02-20T19:47:23.975Z,0.10
2018-02-20T19:49:26.577Z,0.10
2018-02-20T19:51:29.983Z,0.10
2018-02-20T19:53:32.661Z,0.10
2018-02-20T19:55:36.045Z,0.10
2018-02-20T19:57:39.434Z,0.00
2018-02-20T19:59:42.825Z,0.00
2018-02-20T20:01:46.221Z,-0.10
2018-02-20T20:03:49.610Z,-0.20
2018-02-20T20:05:53.045Z,-0.30
2018-02-20T20:07:55.684Z,-0.30
2018-02-20T20:09:59.078Z,-0.30
2018-02-20T20:12:02.445Z,-0.30
2018-02-20T20:14:05.060Z,-0.30
2018-02-20T20:16:07.708Z,-0.20
2018-02-20T20:18:11.093Z,-0.10
2018-02-20T20:20:13.738Z,-0.10
2018-02-20T20:22:16.383Z,-0.10
2018-02-20T20:24:19.018Z,-0.10
2018-02-20T20:26:21.654Z,-0.10
2018-02-20T20:28:24.281Z,-0.10
2018-02-20T20:30:27.828Z,-0.20
2018-02-20T20:32:30.439Z,-0.20
2018-02-20T20:34:33.038Z,-0.20
2018-02-20T20:36:36.428Z,-0.30
2018-02-20T20:38:39.062Z,-0.30
2018-02-20T20:40:41.735Z,-0.30
2018-02-20T20:42:44.377Z,-0.30
2018-02-20T20:44:47.087Z,-0.20
2018-02-20T20:46:49.764Z,-0.10
2018-02-20T20:48:52.393Z,0.00
2018-02-20T20:50:55.015Z,0.10
2018-02-20T20:52:57.644Z,0.00
2018-02-20T20:55:00.272Z,-0.10
2018-02-20T20:57:02.868Z,-0.10
2018-02-20T20:59:06.255Z,-0.10
2018-02-20T21:01:09.049Z,-0.10
2018-02-20T21:03:12.463Z,-0.10
2018-02-20T21:05:15.049Z,-0.20
2018-02-20T21:07:17.669Z,-0.10
2018-02-20T21:09:20.303Z,-0.10
2018-02-20T21:11:22.934Z,-0.10
2018-02-20T21:13:26.317Z,-0.10
2018-02-20T21:15:29.726Z,-0.10
2018-02-20T21:17:33.103Z,-0.10
2018-02-20T21:19:35.759Z,-0.20
2018-02-20T21:21:38.387Z,-0.10
2018-02-20T21:23:41.029Z,-0.10
2018-02-20T21:25:43.720Z,0.00
2018-02-20T21:27:47.103Z,0.00
2018-02-20T21:29:50.495Z,0.00
2018-02-20T21:31:53.881Z,0.10
2018-02-20T21:33:56.490Z,0.10
2018-02-20T21:35:59.128Z,0.00
2018-02-20T21:38:01.743Z,-0.10
2018-02-20T21:40:04.384Z,-0.10
2018-02-20T21:42:07.861Z,-0.10
2018-02-20T21:44:10.466Z,-0.10
2018-02-20T21:46:13.862Z,-0.10
2018-02-20T21:48:17.229Z,-0.10
2018-02-20T21:50:19.840Z,-0.10
2018-02-20T21:52:22.522Z,0.00
2018-02-20T21:54:25.164Z,0.00
2018-02-20T21:56:28.565Z,-0.10
2018-02-20T21:58:32.001Z,-0.10
2018-02-20T22:00:34.595Z,-0.10
2018-02-20T22:02:37.234Z,-0.10
2018-02-20T22:04:39.858Z,0.00
2018-02-20T22:06:42.475Z,0.00
2018-02-20T22:08:45.124Z,-0.10
2018-02-20T22:10:48.495Z,-0.10
2018-02-20T22:12:51.094Z,-0.10
2018-02-20T22:14:54.461Z,-0.10
2018-02-20T22:16:57.094Z,-0.10
2018-02-20T22:18:59.733Z,-0.10
2018-02-20T22:21:02.356Z,0.00
2018-02-20T22:23:04.987Z,-0.10
2018-02-20T22:25:08.349Z,0.00
2018-02-20T22:27:10.949Z,0.00
2018-02-20T22:29:14.358Z,-0.10
2018-02-20T22:31:17.750Z,-0.10
2018-02-20T22:33:21.255Z,0.00
2018-02-20T22:35:23.892Z,0.00
2018-02-20T22:37:26.513Z,0.10
2018-02-20T22:39:29.117Z,0.00
2018-02-20T22:41:31.783Z,0.00
2018-02-20T22:43:34.405Z,0.00
2018-02-20T22:45:37.834Z,0.10
2018-02-20T22:47:40.457Z,0.10
2018-02-20T22:49:43.058Z,0.10
2018-02-20T22:51:46.441Z,0.00
2018-02-20T22:53:50.691Z,0.10
2018-02-20T22:55:53.345Z,0.10
2018-02-20T22:57:55.972Z,0.10
2018-02-20T22:59:58.630Z,0.20
2018-02-20T23:02:01.268Z,0.10
2018-02-20T23:04:04.671Z,0.30
2018-02-20T23:06:07.387Z,0.20
2018-02-20T23:08:10.028Z,0.30
2018-02-20T23:10:12.681Z,0.30
2018-02-20T23:12:16.947Z,0.10
2018-02-20T23:14:19.552Z,0.10
2018-02-20T23:16:22.481Z,0.10
2018-02-20T23:18:25.072Z,0.10
2018-02-20T23:20:27.666Z,0.10
2018-02-20T23:22:30.295Z,0.10
2018-02-20T23:24:32.908Z,0.20
2018-02-20T23:26:35.535Z,0.10
2018-02-20T23:28:38.147Z,0.00
2018-02-20T23:30:40.767Z,-0.10
2018-02-20T23:32:44.145Z,0.00
2018-02-20T23:34:46.749Z,-0.10
2018-02-20T23:36:49.417Z,0.00
2018-02-20T23:38:52.800Z,0.00
2018-02-20T23:40:55.743Z,-0.10
2018-02-20T23:42:58.372Z,-0.10
2018-02-20T23:45:01.777Z,-0.10
2018-02-20T23:47:04.385Z,-0.10
2018-02-20T23:49:07.074Z,-0.10
2018-02-20T23:51:15.173Z,-0.10
2018-02-20T23:53:22.572Z,-0.10
2018-02-20T23:55:25.178Z,-0.20
2018-02-20T23:57:28.568Z,-0.10
2018-02-20T23:59:31.961Z,-0.20
